KMCI/MCI METAR and TAF weather

Enter ICAO airport designator
Station Type Date Time Source
KMCI METAR 2021/08/05 04:53 UTC NOAA

KMCI 050453Z 16007KT 9SM CLR 22/17 A3008 RMK AO2 SLP176 T02170167


Station Type Date Time Source
KMCI Decoded METAR 2021/08/05 04:53 UTC NOAA

KANSAS CITY INTERNATIONAL AIRPORT, MO, United States (KMCI) 39-18N 94-44W 320M
Aug 05, 2021 - 12:53 AM EDT / 2021.08.05 0453 UTC
Wind: from the SSE (160 degrees) at 8 MPH (7 KT):0
Visibility: 9 mile(s):0
Sky conditions: clear
Temperature: 71.1 F (21.7 C)
Dew Point: 62.1 F (16.7 C)
Relative Humidity: 73%
Pressure (altimeter): 30.08 in. Hg (1018 hPa)
ob: KMCI 050453Z 16007KT 9SM CLR 22/17 A3008 RMK AO2 SLP176 T02170167
cycle: 5

Station Type Date Time Source
KMCI TAF 2021/08/04 18:22 UTC NOAA

TAF KMCI 041720Z 0418/0518 15006KT P6SM FEW050 SCT200
FM050300 15005KT P6SM BKN150

Example: see airport list